sensor_id;sensor_type;location;lat;lon;timestamp;P1;durP1;ratioP1;P2;durP2;ratioP2
80675;SDS011;70041;46.088;18.268;2024-01-15T00:01:59;31.97;;;15.00;;
80675;SDS011;70041;46.088;18.268;2024-01-15T00:04:24;33.33;;;16.27;;
80675;SDS011;70041;46.088;18.268;2024-01-15T00:06:50;39.25;;;18.13;;
80675;SDS011;70041;46.088;18.268;2024-01-15T00:09:15;33.53;;;15.57;;
80675;SDS011;70041;46.088;18.268;2024-01-15T00:11:41;37.20;;;16.63;;
80675;SDS011;70041;46.088;18.268;2024-01-15T00:14:08;36.72;;;16.52;;
80675;SDS011;70041;46.088;18.268;2024-01-15T00:16:33;36.92;;;17.95;;
80675;SDS011;70041;46.088;18.268;2024-01-15T00:18:59;54.37;;;21.80;;
80675;SDS011;70041;46.088;18.268;2024-01-15T00:21:24;45.07;;;20.77;;
80675;SDS011;70041;46.088;18.268;2024-01-15T00:23:49;44.90;;;20.45;;
80675;SDS011;70041;46.088;18.268;2024-01-15T00:26:15;41.40;;;19.20;;
80675;SDS011;70041;46.088;18.268;2024-01-15T00:28:40;38.70;;;19.77;;
80675;SDS011;70041;46.088;18.268;2024-01-15T00:31:06;42.63;;;19.17;;
80675;SDS011;70041;46.088;18.268;2024-01-15T00:33:31;49.57;;;21.10;;
80675;SDS011;70041;46.088;18.268;2024-01-15T00:35:56;40.40;;;20.50;;
80675;SDS011;70041;46.088;18.268;2024-01-15T00:38:22;48.53;;;19.63;;
80675;SDS011;70041;46.088;18.268;2024-01-15T00:40:47;47.50;;;20.02;;
80675;SDS011;70041;46.088;18.268;2024-01-15T00:43:13;41.57;;;18.83;;
80675;SDS011;70041;46.088;18.268;2024-01-15T00:45:38;40.00;;;18.90;;
80675;SDS011;70041;46.088;18.268;2024-01-15T00:48:04;39.73;;;17.90;;
80675;SDS011;70041;46.088;18.268;2024-01-15T00:50:30;41.50;;;17.43;;
80675;SDS011;70041;46.088;18.268;2024-01-15T00:52:55;42.63;;;17.85;;
80675;SDS011;70041;46.088;18.268;2024-01-15T00:55:21;41.27;;;18.83;;
80675;SDS011;70041;46.088;18.268;2024-01-15T00:57:46;42.13;;;19.53;;
80675;SDS011;70041;46.088;18.268;2024-01-15T01:00:12;43.97;;;18.83;;
80675;SDS011;70041;46.088;18.268;2024-01-15T01:02:38;43.50;;;18.42;;
80675;SDS011;70041;46.088;18.268;2024-01-15T01:05:03;43.87;;;18.93;;
80675;SDS011;70041;46.088;18.268;2024-01-15T01:07:29;44.55;;;19.27;;
80675;SDS011;70041;46.088;18.268;2024-01-15T01:09:54;38.47;;;17.57;;
80675;SDS011;70041;46.088;18.268;2024-01-15T01:12:20;41.25;;;18.27;;
80675;SDS011;70041;46.088;18.268;2024-01-15T01:14:45;42.58;;;18.25;;
80675;SDS011;70041;46.088;18.268;2024-01-15T01:17:11;38.93;;;17.73;;
80675;SDS011;70041;46.088;18.268;2024-01-15T01:19:36;40.93;;;18.97;;
80675;SDS011;70041;46.088;18.268;2024-01-15T01:22:01;37.83;;;17.97;;
80675;SDS011;70041;46.088;18.268;2024-01-15T01:24:27;43.83;;;19.63;;
80675;SDS011;70041;46.088;18.268;2024-01-15T01:26:53;40.67;;;18.77;;
80675;SDS011;70041;46.088;18.268;2024-01-15T01:29:18;43.33;;;15.90;;
80675;SDS011;70041;46.088;18.268;2024-01-15T01:31:44;36.47;;;17.00;;
80675;SDS011;70041;46.088;18.268;2024-01-15T01:34:10;35.60;;;16.90;;
80675;SDS011;70041;46.088;18.268;2024-01-15T01:36:35;63.63;;;24.73;;
80675;SDS011;70041;46.088;18.268;2024-01-15T01:39:01;42.87;;;18.27;;
80675;SDS011;70041;46.088;18.268;2024-01-15T01:41:26;42.00;;;18.47;;
80675;SDS011;70041;46.088;18.268;2024-01-15T01:43:52;51.53;;;19.70;;
80675;SDS011;70041;46.088;18.268;2024-01-15T01:46:17;104.30;;;36.10;;
80675;SDS011;70041;46.088;18.268;2024-01-15T01:48:43;69.10;;;26.08;;
80675;SDS011;70041;46.088;18.268;2024-01-15T01:51:08;80.10;;;28.57;;
80675;SDS011;70041;46.088;18.268;2024-01-15T01:53:34;62.85;;;24.30;;
80675;SDS011;70041;46.088;18.268;2024-01-15T01:56:02;64.88;;;25.85;;
80675;SDS011;70041;46.088;18.268;2024-01-15T01:58:28;59.93;;;24.37;;
80675;SDS011;70041;46.088;18.268;2024-01-15T02:00:55;155.77;;;55.10;;
80675;SDS011;70041;46.088;18.268;2024-01-15T02:03:22;90.63;;;36.03;;
80675;SDS011;70041;46.088;18.268;2024-01-15T02:05:47;103.50;;;42.50;;
80675;SDS011;70041;46.088;18.268;2024-01-15T02:08:14;92.63;;;35.35;;
80675;SDS011;70041;46.088;18.268;2024-01-15T02:10:40;103.97;;;40.65;;
80675;SDS011;70041;46.088;18.268;2024-01-15T02:13:05;53.17;;;23.30;;
80675;SDS011;70041;46.088;18.268;2024-01-15T02:15:31;52.37;;;22.83;;
80675;SDS011;70041;46.088;18.268;2024-01-15T02:20:25;39.78;;;18.73;;
80675;SDS011;70041;46.088;18.268;2024-01-15T02:22:51;41.47;;;20.50;;
80675;SDS011;70041;46.088;18.268;2024-01-15T02:25:17;45.90;;;21.33;;
80675;SDS011;70041;46.088;18.268;2024-01-15T02:27:43;42.42;;;21.58;;
80675;SDS011;70041;46.088;18.268;2024-01-15T02:30:09;40.00;;;18.25;;
80675;SDS011;70041;46.088;18.268;2024-01-15T02:32:36;44.10;;;21.00;;
80675;SDS011;70041;46.088;18.268;2024-01-15T02:35:02;43.05;;;20.58;;
80675;SDS011;70041;46.088;18.268;2024-01-15T02:37:27;52.83;;;26.27;;
80675;SDS011;70041;46.088;18.268;2024-01-15T02:39:53;87.47;;;38.17;;
80675;SDS011;70041;46.088;18.268;2024-01-15T02:42:18;74.70;;;32.53;;
80675;SDS011;70041;46.088;18.268;2024-01-15T02:44:44;61.83;;;27.47;;
80675;SDS011;70041;46.088;18.268;2024-01-15T02:47:09;38.73;;;18.97;;
80675;SDS011;70041;46.088;18.268;2024-01-15T02:49:34;93.13;;;35.77;;
80675;SDS011;70041;46.088;18.268;2024-01-15T02:52:00;78.00;;;34.90;;
80675;SDS011;70041;46.088;18.268;2024-01-15T02:54:25;71.30;;;30.23;;
80675;SDS011;70041;46.088;18.268;2024-01-15T02:56:51;52.55;;;24.25;;
80675;SDS011;70041;46.088;18.268;2024-01-15T02:59:16;36.22;;;15.52;;
80675;SDS011;70041;46.088;18.268;2024-01-15T03:01:41;32.83;;;14.70;;
80675;SDS011;70041;46.088;18.268;2024-01-15T03:04:07;39.03;;;17.00;;
80675;SDS011;70041;46.088;18.268;2024-01-15T03:06:32;37.20;;;16.67;;
80675;SDS011;70041;46.088;18.268;2024-01-15T03:08:57;34.60;;;17.20;;
80675;SDS011;70041;46.088;18.268;2024-01-15T03:11:23;39.73;;;18.17;;
80675;SDS011;70041;46.088;18.268;2024-01-15T03:13:48;43.70;;;19.03;;
80675;SDS011;70041;46.088;18.268;2024-01-15T03:16:13;43.40;;;20.15;;
80675;SDS011;70041;46.088;18.268;2024-01-15T03:18:39;47.35;;;21.48;;
80675;SDS011;70041;46.088;18.268;2024-01-15T03:21:04;49.47;;;21.50;;
80675;SDS011;70041;46.088;18.268;2024-01-15T03:23:30;38.83;;;18.75;;
80675;SDS011;70041;46.088;18.268;2024-01-15T03:25:56;39.90;;;16.67;;
80675;SDS011;70041;46.088;18.268;2024-01-15T03:28:21;40.00;;;17.50;;
80675;SDS011;70041;46.088;18.268;2024-01-15T03:30:46;44.97;;;19.50;;
80675;SDS011;70041;46.088;18.268;2024-01-15T03:33:12;40.20;;;18.03;;
80675;SDS011;70041;46.088;18.268;2024-01-15T03:35:37;41.92;;;18.08;;
80675;SDS011;70041;46.088;18.268;2024-01-15T03:38:03;42.60;;;18.60;;
80675;SDS011;70041;46.088;18.268;2024-01-15T03:40:28;43.33;;;19.17;;
80675;SDS011;70041;46.088;18.268;2024-01-15T03:42:54;44.47;;;19.90;;
80675;SDS011;70041;46.088;18.268;2024-01-15T03:45:19;51.35;;;22.42;;
80675;SDS011;70041;46.088;18.268;2024-01-15T03:47:44;55.67;;;21.55;;
80675;SDS011;70041;46.088;18.268;2024-01-15T03:50:12;42.33;;;19.67;;
80675;SDS011;70041;46.088;18.268;2024-01-15T03:52:37;46.33;;;19.55;;
80675;SDS011;70041;46.088;18.268;2024-01-15T03:55:03;44.67;;;20.03;;
80675;SDS011;70041;46.088;18.268;2024-01-15T03:57:29;33.88;;;16.98;;
80675;SDS011;70041;46.088;18.268;2024-01-15T03:59:55;41.90;;;18.10;;
80675;SDS011;70041;46.088;18.268;2024-01-15T04:02:20;44.40;;;19.57;;
80675;SDS011;70041;46.088;18.268;2024-01-15T04:04:46;41.27;;;17.83;;
80675;SDS011;70041;46.088;18.268;2024-01-15T04:07:11;37.53;;;15.63;;
80675;SDS011;70041;46.088;18.268;2024-01-15T04:09:36;37.60;;;17.37;;
80675;SDS011;70041;46.088;18.268;2024-01-15T04:12:02;32.42;;;17.50;;
80675;SDS011;70041;46.088;18.268;2024-01-15T04:14:27;34.57;;;17.00;;
80675;SDS011;70041;46.088;18.268;2024-01-15T04:16:53;34.72;;;17.55;;
80675;SDS011;70041;46.088;18.268;2024-01-15T04:19:20;35.00;;;16.30;;
80675;SDS011;70041;46.088;18.268;2024-01-15T04:21:45;31.75;;;16.20;;
80675;SDS011;70041;46.088;18.268;2024-01-15T04:24:11;35.27;;;16.60;;
80675;SDS011;70041;46.088;18.268;2024-01-15T04:26:36;33.40;;;16.73;;
80675;SDS011;70041;46.088;18.268;2024-01-15T04:29:01;30.63;;;16.13;;
80675;SDS011;70041;46.088;18.268;2024-01-15T04:31:27;30.63;;;14.43;;
80675;SDS011;70041;46.088;18.268;2024-01-15T04:33:52;32.70;;;13.85;;
80675;SDS011;70041;46.088;18.268;2024-01-15T04:36:18;32.57;;;14.87;;
80675;SDS011;70041;46.088;18.268;2024-01-15T04:38:43;34.93;;;15.30;;
80675;SDS011;70041;46.088;18.268;2024-01-15T04:41:14;31.83;;;14.60;;
80675;SDS011;70041;46.088;18.268;2024-01-15T04:43:41;44.35;;;19.05;;
80675;SDS011;70041;46.088;18.268;2024-01-15T04:46:07;42.17;;;19.20;;
80675;SDS011;70041;46.088;18.268;2024-01-15T04:48:32;36.57;;;17.00;;
80675;SDS011;70041;46.088;18.268;2024-01-15T04:50:58;33.78;;;14.50;;
80675;SDS011;70041;46.088;18.268;2024-01-15T04:53:23;29.93;;;14.17;;
80675;SDS011;70041;46.088;18.268;2024-01-15T04:55:49;32.50;;;13.60;;
80675;SDS011;70041;46.088;18.268;2024-01-15T04:58:14;28.60;;;13.32;;
80675;SDS011;70041;46.088;18.268;2024-01-15T05:00:39;30.53;;;13.67;;
80675;SDS011;70041;46.088;18.268;2024-01-15T05:03:05;32.73;;;14.47;;
80675;SDS011;70041;46.088;18.268;2024-01-15T05:05:30;33.87;;;14.47;;
80675;SDS011;70041;46.088;18.268;2024-01-15T05:07:55;26.73;;;13.13;;
80675;SDS011;70041;46.088;18.268;2024-01-15T05:10:21;29.53;;;13.23;;
80675;SDS011;70041;46.088;18.268;2024-01-15T05:12:46;28.63;;;13.67;;
80675;SDS011;70041;46.088;18.268;2024-01-15T05:15:12;26.83;;;13.10;;
80675;SDS011;70041;46.088;18.268;2024-01-15T05:17:37;32.65;;;14.50;;
80675;SDS011;70041;46.088;18.268;2024-01-15T05:20:02;27.63;;;15.20;;
80675;SDS011;70041;46.088;18.268;2024-01-15T05:22:29;25.73;;;13.02;;
80675;SDS011;70041;46.088;18.268;2024-01-15T05:24:55;27.30;;;13.57;;
80675;SDS011;70041;46.088;18.268;2024-01-15T05:27:20;43.07;;;18.77;;
80675;SDS011;70041;46.088;18.268;2024-01-15T05:29:45;40.20;;;17.73;;
80675;SDS011;70041;46.088;18.268;2024-01-15T05:32:11;193.27;;;90.73;;
80675;SDS011;70041;46.088;18.268;2024-01-15T05:34:36;99.95;;;48.85;;
80675;SDS011;70041;46.088;18.268;2024-01-15T05:37:02;60.67;;;26.23;;
80675;SDS011;70041;46.088;18.268;2024-01-15T05:39:27;53.37;;;23.47;;
80675;SDS011;70041;46.088;18.268;2024-01-15T05:41:52;47.33;;;20.23;;
80675;SDS011;70041;46.088;18.268;2024-01-15T05:44:18;44.83;;;20.20;;
80675;SDS011;70041;46.088;18.268;2024-01-15T05:46:43;36.90;;;16.73;;
80675;SDS011;70041;46.088;18.268;2024-01-15T05:49:08;36.63;;;17.02;;
80675;SDS011;70041;46.088;18.268;2024-01-15T05:51:34;38.13;;;15.67;;
80675;SDS011;70041;46.088;18.268;2024-01-15T05:53:59;35.87;;;16.53;;
80675;SDS011;70041;46.088;18.268;2024-01-15T05:59:46;31.33;;;13.65;;
80675;SDS011;70041;46.088;18.268;2024-01-15T06:02:11;27.83;;;13.20;;
80675;SDS011;70041;46.088;18.268;2024-01-15T06:04:37;27.33;;;12.93;;
80675;SDS011;70041;46.088;18.268;2024-01-15T06:07:02;27.63;;;13.00;;
80675;SDS011;70041;46.088;18.268;2024-01-15T06:09:28;24.40;;;11.57;;
80675;SDS011;70041;46.088;18.268;2024-01-15T06:11:53;30.67;;;14.30;;
80675;SDS011;70041;46.088;18.268;2024-01-15T06:14:19;39.28;;;17.40;;
80675;SDS011;70041;46.088;18.268;2024-01-15T06:16:45;42.43;;;19.50;;
80675;SDS011;70041;46.088;18.268;2024-01-15T06:19:10;42.70;;;20.63;;
80675;SDS011;70041;46.088;18.268;2024-01-15T06:21:36;41.60;;;19.83;;
80675;SDS011;70041;46.088;18.268;2024-01-15T06:24:01;47.00;;;23.87;;
80675;SDS011;70041;46.088;18.268;2024-01-15T06:26:26;67.65;;;31.23;;
80675;SDS011;70041;46.088;18.268;2024-01-15T06:28:52;79.43;;;33.57;;
80675;SDS011;70041;46.088;18.268;2024-01-15T06:31:17;76.67;;;32.53;;
80675;SDS011;70041;46.088;18.268;2024-01-15T06:33:43;58.57;;;29.57;;
80675;SDS011;70041;46.088;18.268;2024-01-15T06:36:10;79.95;;;39.08;;
80675;SDS011;70041;46.088;18.268;2024-01-15T06:38:35;69.57;;;31.87;;
80675;SDS011;70041;46.088;18.268;2024-01-15T06:41:01;61.33;;;28.95;;
80675;SDS011;70041;46.088;18.268;2024-01-15T06:43:26;53.85;;;25.85;;
80675;SDS011;70041;46.088;18.268;2024-01-15T06:45:52;50.87;;;24.63;;
80675;SDS011;70041;46.088;18.268;2024-01-15T06:48:17;50.00;;;25.10;;
80675;SDS011;70041;46.088;18.268;2024-01-15T06:50:43;57.43;;;25.77;;
80675;SDS011;70041;46.088;18.268;2024-01-15T06:53:08;54.53;;;26.27;;
80675;SDS011;70041;46.088;18.268;2024-01-15T06:55:34;49.37;;;25.70;;
80675;SDS011;70041;46.088;18.268;2024-01-15T06:57:59;51.60;;;24.53;;
80675;SDS011;70041;46.088;18.268;2024-01-15T07:00:25;54.60;;;27.27;;
80675;SDS011;70041;46.088;18.268;2024-01-15T07:02:50;37.00;;;18.98;;
80675;SDS011;70041;46.088;18.268;2024-01-15T07:05:17;36.50;;;17.15;;
80675;SDS011;70041;46.088;18.268;2024-01-15T07:07:42;46.23;;;20.70;;
80675;SDS011;70041;46.088;18.268;2024-01-15T07:10:08;41.63;;;21.33;;
80675;SDS011;70041;46.088;18.268;2024-01-15T07:12:33;55.10;;;25.37;;
80675;SDS011;70041;46.088;18.268;2024-01-15T07:14:59;54.90;;;25.63;;
80675;SDS011;70041;46.088;18.268;2024-01-15T07:17:24;47.88;;;24.50;;
80675;SDS011;70041;46.088;18.268;2024-01-15T07:19:50;51.83;;;24.00;;
80675;SDS011;70041;46.088;18.268;2024-01-15T07:22:15;70.30;;;34.83;;
80675;SDS011;70041;46.088;18.268;2024-01-15T07:24:42;127.40;;;52.67;;
80675;SDS011;70041;46.088;18.268;2024-01-15T07:27:08;146.32;;;66.05;;
80675;SDS011;70041;46.088;18.268;2024-01-15T07:29:34;132.97;;;58.03;;
80675;SDS011;70041;46.088;18.268;2024-01-15T07:32:02;96.72;;;45.58;;
80675;SDS011;70041;46.088;18.268;2024-01-15T07:34:28;97.07;;;44.67;;
80675;SDS011;70041;46.088;18.268;2024-01-15T07:36:54;87.07;;;39.13;;
80675;SDS011;70041;46.088;18.268;2024-01-15T07:39:20;86.57;;;37.53;;
80675;SDS011;70041;46.088;18.268;2024-01-15T07:41:45;78.90;;;37.53;;
80675;SDS011;70041;46.088;18.268;2024-01-15T07:44:11;97.60;;;43.97;;
80675;SDS011;70041;46.088;18.268;2024-01-15T07:46:36;94.20;;;42.80;;
80675;SDS011;70041;46.088;18.268;2024-01-15T07:49:02;86.93;;;42.00;;
80675;SDS011;70041;46.088;18.268;2024-01-15T07:51:28;76.83;;;38.67;;
80675;SDS011;70041;46.088;18.268;2024-01-15T07:53:54;88.70;;;41.58;;
80675;SDS011;70041;46.088;18.268;2024-01-15T07:56:20;90.97;;;42.85;;
80675;SDS011;70041;46.088;18.268;2024-01-15T07:58:46;107.87;;;47.23;;
80675;SDS011;70041;46.088;18.268;2024-01-15T08:01:12;94.70;;;43.58;;
80675;SDS011;70041;46.088;18.268;2024-01-15T08:03:37;67.93;;;33.85;;
80675;SDS011;70041;46.088;18.268;2024-01-15T08:06:03;44.67;;;21.33;;
80675;SDS011;70041;46.088;18.268;2024-01-15T08:08:28;56.13;;;27.17;;
80675;SDS011;70041;46.088;18.268;2024-01-15T08:10:54;53.47;;;26.80;;
80675;SDS011;70041;46.088;18.268;2024-01-15T08:13:19;61.80;;;30.57;;
80675;SDS011;70041;46.088;18.268;2024-01-15T08:15:46;58.28;;;32.67;;
80675;SDS011;70041;46.088;18.268;2024-01-15T08:18:11;60.17;;;32.30;;
80675;SDS011;70041;46.088;18.268;2024-01-15T08:20:38;38.85;;;23.15;;
80675;SDS011;70041;46.088;18.268;2024-01-15T08:23:04;49.67;;;24.10;;
80675;SDS011;70041;46.088;18.268;2024-01-15T08:25:30;47.13;;;22.55;;
80675;SDS011;70041;46.088;18.268;2024-01-15T08:27:56;47.33;;;21.50;;
80675;SDS011;70041;46.088;18.268;2024-01-15T08:30:22;38.05;;;18.95;;
80675;SDS011;70041;46.088;18.268;2024-01-15T08:32:53;58.67;;;29.15;;
80675;SDS011;70041;46.088;18.268;2024-01-15T08:35:21;50.58;;;23.52;;
80675;SDS011;70041;46.088;18.268;2024-01-15T08:37:51;44.27;;;22.60;;
80675;SDS011;70041;46.088;18.268;2024-01-15T08:40:18;41.90;;;19.40;;
80675;SDS011;70041;46.088;18.268;2024-01-15T08:42:43;44.05;;;22.48;;
80675;SDS011;70041;46.088;18.268;2024-01-15T08:45:10;57.75;;;26.67;;
80675;SDS011;70041;46.088;18.268;2024-01-15T08:47:36;53.80;;;26.20;;
80675;SDS011;70041;46.088;18.268;2024-01-15T08:50:01;47.83;;;26.87;;
80675;SDS011;70041;46.088;18.268;2024-01-15T08:52:28;55.15;;;25.10;;
80675;SDS011;70041;46.088;18.268;2024-01-15T08:54:55;57.50;;;27.08;;
80675;SDS011;70041;46.088;18.268;2024-01-15T08:57:21;50.58;;;25.05;;
80675;SDS011;70041;46.088;18.268;2024-01-15T08:59:47;49.27;;;27.60;;
80675;SDS011;70041;46.088;18.268;2024-01-15T09:02:12;72.43;;;33.27;;
80675;SDS011;70041;46.088;18.268;2024-01-15T09:04:38;59.78;;;29.52;;
80675;SDS011;70041;46.088;18.268;2024-01-15T09:07:04;56.87;;;27.50;;
80675;SDS011;70041;46.088;18.268;2024-01-15T09:09:29;44.07;;;22.57;;
80675;SDS011;70041;46.088;18.268;2024-01-15T09:11:54;53.42;;;24.23;;
80675;SDS011;70041;46.088;18.268;2024-01-15T09:14:20;42.47;;;20.27;;
80675;SDS011;70041;46.088;18.268;2024-01-15T09:16:47;40.15;;;21.10;;
80675;SDS011;70041;46.088;18.268;2024-01-15T09:19:12;49.50;;;24.37;;
80675;SDS011;70041;46.088;18.268;2024-01-15T09:21:38;62.50;;;28.63;;
80675;SDS011;70041;46.088;18.268;2024-01-15T09:24:03;42.72;;;21.20;;
80675;SDS011;70041;46.088;18.268;2024-01-15T09:26:29;29.77;;;13.30;;
80675;SDS011;70041;46.088;18.268;2024-01-15T09:28:54;16.63;;;7.90;;
80675;SDS011;70041;46.088;18.268;2024-01-15T09:31:20;11.65;;;5.20;;
80675;SDS011;70041;46.088;18.268;2024-01-15T09:33:46;14.70;;;6.35;;
80675;SDS011;70041;46.088;18.268;2024-01-15T09:36:11;13.02;;;5.72;;
80675;SDS011;70041;46.088;18.268;2024-01-15T09:38:37;12.70;;;6.37;;
80675;SDS011;70041;46.088;18.268;2024-01-15T09:41:05;12.68;;;6.13;;
80675;SDS011;70041;46.088;18.268;2024-01-15T09:43:30;18.87;;;8.20;;
80675;SDS011;70041;46.088;18.268;2024-01-15T09:45:56;17.33;;;6.32;;
80675;SDS011;70041;46.088;18.268;2024-01-15T09:48:22;15.55;;;7.93;;
80675;SDS011;70041;46.088;18.268;2024-01-15T09:50:47;16.40;;;8.05;;
80675;SDS011;70041;46.088;18.268;2024-01-15T09:53:14;17.30;;;7.80;;
80675;SDS011;70041;46.088;18.268;2024-01-15T09:55:40;18.60;;;8.55;;
80675;SDS011;70041;46.088;18.268;2024-01-15T09:58:06;18.35;;;9.27;;
80675;SDS011;70041;46.088;18.268;2024-01-15T10:00:33;20.58;;;9.98;;
80675;SDS011;70041;46.088;18.268;2024-01-15T10:03:01;20.43;;;9.63;;
80675;SDS011;70041;46.088;18.268;2024-01-15T10:05:28;23.50;;;10.85;;
80675;SDS011;70041;46.088;18.268;2024-01-15T10:07:54;21.17;;;10.95;;
80675;SDS011;70041;46.088;18.268;2024-01-15T10:10:21;20.23;;;10.67;;
80675;SDS011;70041;46.088;18.268;2024-01-15T10:12:47;19.58;;;9.13;;
80675;SDS011;70041;46.088;18.268;2024-01-15T10:15:14;20.93;;;9.40;;
80675;SDS011;70041;46.088;18.268;2024-01-15T10:17:39;23.17;;;10.77;;
80675;SDS011;70041;46.088;18.268;2024-01-15T10:20:11;20.73;;;9.83;;
80675;SDS011;70041;46.088;18.268;2024-01-15T10:22:41;19.73;;;9.70;;
80675;SDS011;70041;46.088;18.268;2024-01-15T10:25:11;19.80;;;10.63;;
80675;SDS011;70041;46.088;18.268;2024-01-15T10:27:43;23.48;;;10.15;;
80675;SDS011;70041;46.088;18.268;2024-01-15T10:30:09;19.73;;;9.33;;
80675;SDS011;70041;46.088;18.268;2024-01-15T10:32:35;17.33;;;9.65;;
80675;SDS011;70041;46.088;18.268;2024-01-15T10:35:01;17.52;;;9.07;;
80675;SDS011;70041;46.088;18.268;2024-01-15T10:37:27;17.30;;;8.68;;
80675;SDS011;70041;46.088;18.268;2024-01-15T10:39:52;17.17;;;9.30;;
80675;SDS011;70041;46.088;18.268;2024-01-15T10:42:17;16.25;;;7.18;;
80675;SDS011;70041;46.088;18.268;2024-01-15T10:44:43;13.32;;;7.18;;
80675;SDS011;70041;46.088;18.268;2024-01-15T10:47:11;13.55;;;7.28;;
80675;SDS011;70041;46.088;18.268;2024-01-15T10:49:37;16.73;;;7.57;;
80675;SDS011;70041;46.088;18.268;2024-01-15T10:52:03;18.63;;;9.43;;
80675;SDS011;70041;46.088;18.268;2024-01-15T10:54:29;28.98;;;15.00;;
80675;SDS011;70041;46.088;18.268;2024-01-15T10:56:55;29.70;;;14.85;;
80675;SDS011;70041;46.088;18.268;2024-01-15T10:59:21;28.77;;;13.80;;
80675;SDS011;70041;46.088;18.268;2024-01-15T11:01:50;21.40;;;9.23;;
80675;SDS011;70041;46.088;18.268;2024-01-15T11:04:19;15.30;;;7.28;;
80675;SDS011;70041;46.088;18.268;2024-01-15T11:06:47;13.75;;;6.85;;
80675;SDS011;70041;46.088;18.268;2024-01-15T11:09:15;16.73;;;8.25;;
80675;SDS011;70041;46.088;18.268;2024-01-15T11:11:46;16.73;;;8.20;;
80675;SDS011;70041;46.088;18.268;2024-01-15T11:17:00;21.58;;;9.13;;
80675;SDS011;70041;46.088;18.268;2024-01-15T11:19:25;19.95;;;8.88;;
80675;SDS011;70041;46.088;18.268;2024-01-15T11:21:51;16.97;;;9.33;;
80675;SDS011;70041;46.088;18.268;2024-01-15T11:24:35;17.77;;;7.83;;
80675;SDS011;70041;46.088;18.268;2024-01-15T11:27:05;20.65;;;9.27;;
80675;SDS011;70041;46.088;18.268;2024-01-15T11:29:35;21.70;;;9.80;;
80675;SDS011;70041;46.088;18.268;2024-01-15T11:37:17;26.08;;;12.23;;
80675;SDS011;70041;46.088;18.268;2024-01-15T11:39:44;25.05;;;14.85;;
80675;SDS011;70041;46.088;18.268;2024-01-15T11:42:10;25.50;;;14.82;;
80675;SDS011;70041;46.088;18.268;2024-01-15T11:44:36;25.90;;;12.25;;
80675;SDS011;70041;46.088;18.268;2024-01-15T11:47:06;19.87;;;9.63;;
80675;SDS011;70041;46.088;18.268;2024-01-15T11:52:21;18.75;;;9.40;;
80675;SDS011;70041;46.088;18.268;2024-01-15T11:54:54;23.05;;;10.27;;
80675;SDS011;70041;46.088;18.268;2024-01-15T11:57:30;23.25;;;10.45;;
80675;SDS011;70041;46.088;18.268;2024-01-15T11:59:58;23.93;;;10.87;;
80675;SDS011;70041;46.088;18.268;2024-01-15T12:02:23;26.08;;;10.82;;
80675;SDS011;70041;46.088;18.268;2024-01-15T12:04:49;28.40;;;13.27;;
80675;SDS011;70041;46.088;18.268;2024-01-15T12:07:14;102.97;;;40.80;;
80675;SDS011;70041;46.088;18.268;2024-01-15T12:09:43;61.10;;;28.13;;
80675;SDS011;70041;46.088;18.268;2024-01-15T12:12:09;57.45;;;25.42;;
80675;SDS011;70041;46.088;18.268;2024-01-15T12:14:41;46.93;;;22.00;;
80675;SDS011;70041;46.088;18.268;2024-01-15T12:17:07;27.30;;;13.45;;
80675;SDS011;70041;46.088;18.268;2024-01-15T12:19:32;27.47;;;12.47;;
80675;SDS011;70041;46.088;18.268;2024-01-15T12:21:58;30.77;;;14.03;;
80675;SDS011;70041;46.088;18.268;2024-01-15T12:24:23;25.57;;;13.33;;
80675;SDS011;70041;46.088;18.268;2024-01-15T12:26:48;24.70;;;11.55;;
80675;SDS011;70041;46.088;18.268;2024-01-15T12:29:14;20.40;;;9.77;;
80675;SDS011;70041;46.088;18.268;2024-01-15T12:31:43;22.57;;;9.60;;
80675;SDS011;70041;46.088;18.268;2024-01-15T12:34:11;25.75;;;13.10;;
80675;SDS011;70041;46.088;18.268;2024-01-15T12:36:36;27.13;;;13.27;;
80675;SDS011;70041;46.088;18.268;2024-01-15T12:39:02;30.67;;;16.15;;
80675;SDS011;70041;46.088;18.268;2024-01-15T12:41:28;28.93;;;13.03;;
80675;SDS011;70041;46.088;18.268;2024-01-15T12:43:53;25.83;;;11.57;;
80675;SDS011;70041;46.088;18.268;2024-01-15T12:46:19;30.42;;;13.23;;
80675;SDS011;70041;46.088;18.268;2024-01-15T12:48:44;37.17;;;16.73;;
80675;SDS011;70041;46.088;18.268;2024-01-15T12:51:10;24.73;;;10.73;;
80675;SDS011;70041;46.088;18.268;2024-01-15T12:53:35;17.05;;;8.30;;
80675;SDS011;70041;46.088;18.268;2024-01-15T12:56:01;18.40;;;7.80;;
80675;SDS011;70041;46.088;18.268;2024-01-15T12:58:26;20.23;;;8.63;;
80675;SDS011;70041;46.088;18.268;2024-01-15T13:00:52;18.13;;;9.03;;
80675;SDS011;70041;46.088;18.268;2024-01-15T13:03:17;22.65;;;8.98;;
80675;SDS011;70041;46.088;18.268;2024-01-15T13:05:43;17.27;;;8.73;;
80675;SDS011;70041;46.088;18.268;2024-01-15T13:08:08;21.43;;;9.37;;
80675;SDS011;70041;46.088;18.268;2024-01-15T13:10:33;22.10;;;10.25;;
80675;SDS011;70041;46.088;18.268;2024-01-15T13:12:59;18.40;;;8.70;;
80675;SDS011;70041;46.088;18.268;2024-01-15T13:15:24;18.07;;;7.37;;
80675;SDS011;70041;46.088;18.268;2024-01-15T13:17:50;13.63;;;6.67;;
80675;SDS011;70041;46.088;18.268;2024-01-15T13:20:15;15.13;;;6.33;;
80675;SDS011;70041;46.088;18.268;2024-01-15T13:22:41;14.00;;;6.27;;
80675;SDS011;70041;46.088;18.268;2024-01-15T13:25:08;15.23;;;6.82;;
80675;SDS011;70041;46.088;18.268;2024-01-15T13:27:34;17.02;;;7.70;;
80675;SDS011;70041;46.088;18.268;2024-01-15T13:30:02;19.27;;;9.32;;
80675;SDS011;70041;46.088;18.268;2024-01-15T13:32:29;17.40;;;7.85;;
80675;SDS011;70041;46.088;18.268;2024-01-15T13:34:55;18.85;;;9.45;;
80675;SDS011;70041;46.088;18.268;2024-01-15T13:37:21;23.48;;;10.40;;
80675;SDS011;70041;46.088;18.268;2024-01-15T13:39:48;18.10;;;9.87;;
80675;SDS011;70041;46.088;18.268;2024-01-15T13:42:14;17.42;;;9.75;;
80675;SDS011;70041;46.088;18.268;2024-01-15T13:44:40;27.73;;;14.93;;
80675;SDS011;70041;46.088;18.268;2024-01-15T13:47:06;33.80;;;16.63;;
80675;SDS011;70041;46.088;18.268;2024-01-15T13:49:31;30.90;;;16.10;;
80675;SDS011;70041;46.088;18.268;2024-01-15T13:51:59;37.05;;;16.95;;
80675;SDS011;70041;46.088;18.268;2024-01-15T13:54:24;33.23;;;17.50;;
80675;SDS011;70041;46.088;18.268;2024-01-15T13:56:49;35.20;;;18.40;;
80675;SDS011;70041;46.088;18.268;2024-01-15T13:59:15;58.73;;;30.47;;
80675;SDS011;70041;46.088;18.268;2024-01-15T14:01:40;44.93;;;24.10;;
80675;SDS011;70041;46.088;18.268;2024-01-15T14:04:07;49.03;;;25.45;;
80675;SDS011;70041;46.088;18.268;2024-01-15T14:06:32;50.33;;;25.03;;
80675;SDS011;70041;46.088;18.268;2024-01-15T14:08:58;47.17;;;23.73;;
80675;SDS011;70041;46.088;18.268;2024-01-15T14:11:23;41.67;;;19.40;;
80675;SDS011;70041;46.088;18.268;2024-01-15T14:13:48;34.15;;;16.88;;
80675;SDS011;70041;46.088;18.268;2024-01-15T14:16:14;38.60;;;16.37;;
80675;SDS011;70041;46.088;18.268;2024-01-15T14:18:39;37.13;;;17.83;;
80675;SDS011;70041;46.088;18.268;2024-01-15T14:21:05;66.93;;;31.67;;